MSC Vanessa — HOWD — position and weather

sailwx.info

Track history (hours):
 
Tides and Currents Weather Stations Pressure Air Temp Water Temp Dewpoint Dewpoint Depression Visibility Wind Speed Wind Dir Waves Ship Positions

MSC Vanessa

Last reported at 2014-Oct-26 01:31 UTC. Time now 2014-Oct-26 01:57 UTC.
Position N 40°41' W 074°09'.

Length 300 m; draft 11.5 m.

Type: Ship (hazmat cat A). MMSI: 356946000.

Date/timePositionNaut miles runAvg speedWind from/ knotsBaromVisibWave heightAir tempDewpointWater temp
2014-Oct-26 01:31N 40°41' W 074°09'0 0.0
2014-Oct-26 00:31N 40°41' W 074°09'0 0.0
2014-Oct-25 23:31N 40°41' W 074°09'0 0.0
2014-Oct-25 22:22N 40°41' W 074°09'0 0.0
2014-Oct-25 21:28N 40°41' W 074°09'1 1.1
2014-Oct-25 20:33N 40°40' W 074°08'4 4.0
2014-Oct-25 19:30N 40°38' W 074°03'1010.2
2014-Oct-25 18:34N 40°30' W 073°57'10 9.8
2014-Oct-25 17:33N 40°24' W 073°47'10 9.4
2014-Oct-25 16:32N 40°14' W 073°46'1818.1
2014-Oct-25 15:33N 39°56' W 073°42'1818.3
2014-Oct-25 14:33N 39°38' W 073°40'1818.3
2014-Oct-25 13:33N 39°20' W 073°41'1818.0
2014-Oct-25 12:33N 39°02' W 073°43'3 3.2
2014-Oct-25 11:32N 38°59' W 073°45'1515.5
2014-Oct-25 10:33N 38°44' W 073°46'  
Track history (hours):
 
Tides and Currents Weather Stations Pressure Air Temp Water Temp Dewpoint Dewpoint Depression Visibility Wind Speed Wind Dir Waves Ship Positions

MSC Vanessa

Last reported at 2014-Oct-26 01:31 UTC. Time now 2014-Oct-26 01:57 UTC.
Position N 40°41' W 074°09'.

Length 300 m; draft 11.5 m.

Type: Ship (hazmat cat A). MMSI: 356946000.

Date/timePositionNaut miles runAvg speedWind from/ knotsBaromVisibWave heightAir tempDewpointWater temp
2014-Oct-26 01:31N 40°41' W 074°09'0 0.0
2014-Oct-26 00:31N 40°41' W 074°09'0 0.0
2014-Oct-25 23:31N 40°41' W 074°09'0 0.0
2014-Oct-25 22:22N 40°41' W 074°09'0 0.0
2014-Oct-25 21:28N 40°41' W 074°09'1 1.1
2014-Oct-25 20:33N 40°40' W 074°08'4 4.0
2014-Oct-25 19:30N 40°38' W 074°03'1010.2
2014-Oct-25 18:34N 40°30' W 073°57'10 9.8
2014-Oct-25 17:33N 40°24' W 073°47'10 9.4
2014-Oct-25 16:32N 40°14' W 073°46'1818.1
2014-Oct-25 15:33N 39°56' W 073°42'1818.3
2014-Oct-25 14:33N 39°38' W 073°40'1818.3
2014-Oct-25 13:33N 39°20' W 073°41'1818.0
2014-Oct-25 12:33N 39°02' W 073°43'3 3.2
2014-Oct-25 11:32N 38°59' W 073°45'1515.5
2014-Oct-25 10:33N 38°44' W 073°46'  

Dump ship's entire track history